Time;durP1;ratioP1;P1;durP2;ratioP2;P2;SDS_P1;SDS_P2;PMS_P1;PMS_P2;Temp;Humidity;BMP_temperature;BMP_pressure;BME280_temperature;BME280_humidity;BME280_pressure;Samples;Min_cycle;Max_cycle;Signal;HPM_P1;HPM_P2
2023/02/04 02:56:44;;;;;;;10.98;6.90;;;;;;;2.55;76.19;100172.69;1703972;83;21222;-57
2023/02/04 03:00:02;;;;;;;12.65;7.40;;;;;;;1.13;77.21;100204.72;1724384;82;21206;-57
2023/02/04 03:03:30;;;;;;;11.00;6.83;;;;;;;1.07;77.14;100213.29;1720152;83;21194;-59
2023/02/04 03:07:02;;;;;;;10.63;7.12;;;;;;;1.03;77.16;100217.19;1725460;83;21361;-57
2023/02/04 03:10:37;;;;;;;11.55;7.75;;;;;;;1.02;77.17;100220.00;1718700;82;21223;-58
2023/02/04 03:14:07;;;;;;;11.12;7.65;;;;;;;0.98;77.26;100218.54;1711110;83;21294;-57
2023/02/04 03:17:27;;;;;;;12.45;8.23;;;;;;;1.04;77.25;100218.05;1859008;76;22273;-57
2023/02/04 03:21:05;;;;;;;14.07;8.65;;;;;;;0.95;77.24;100216.92;1737694;81;21252;-59
2023/02/04 03:24:43;;;;;;;11.12;7.50;;;;;;;0.95;77.30;100216.92;1767947;79;21173;-59
2023/02/04 03:31:18;;;;;;;12.95;8.18;;;;;;;0.96;77.20;100215.97;1843983;76;22285;-60
2023/02/04 03:34:38;;;;;;;12.00;7.72;;;;;;;0.90;77.28;100217.80;1805700;79;21765;-57
2023/02/04 03:38:24;;;;;;;13.18;8.30;;;;;;;0.91;77.32;100216.81;1752906;79;21410;-59
2023/02/04 03:41:52;;;;;;;12.20;8.40;;;;;;;0.93;77.36;100220.25;1805885;79;21200;-57
2023/02/04 03:45:34;;;;;;;20.20;11.53;;;;;;;0.98;77.44;100228.80;1790767;79;21248;-56
2023/02/04 03:48:53;;;;;;;12.07;8.53;;;;;;;0.98;77.42;100226.11;1804504;79;21196;-58
2023/02/04 03:52:19;;;;;;;11.78;8.25;;;;;;;0.98;77.46;100216.68;1804981;79;21169;-59
2023/02/04 03:56:25;;;;;;;11.83;8.48;;;;;;;1.01;77.56;100219.17;1805442;79;21240;-57
2023/02/04 03:59:48;;;;;;;11.15;8.15;;;;;;;1.09;77.67;100227.52;1804327;79;21177;-58
2023/02/04 04:03:19;;;;;;;14.73;8.53;;;;;;;1.12;77.61;100221.88;1769883;79;21256;-58
2023/02/04 04:06:49;;;;;;;13.60;9.38;;;;;;;1.15;77.46;100223.46;1858388;76;22493;-60
2023/02/04 04:10:15;;;;;;;13.60;8.33;;;;;;;1.11;77.38;100222.84;1858067;76;22277;-59
2023/02/04 04:13:48;;;;;;;10.90;7.87;;;;;;;1.03;77.39;100221.23;1788676;78;21237;-56
2023/02/04 04:17:29;;;;;;;12.13;8.18;;;;;;;0.99;77.29;100223.81;1879302;75;22247;-60
2023/02/04 04:20:47;;;;;;;9.63;7.47;;;;;;;0.91;77.27;100228.93;1728026;76;21428;-58
2023/02/04 04:27:28;;;;;;;10.32;7.42;;;;;;;0.90;77.37;100236.66;1739309;81;21311;-59
2023/02/04 04:30:54;;;;;;;9.45;7.25;;;;;;;0.85;77.26;100237.50;1739290;80;21419;-60
2023/02/04 04:34:17;;;;;;;;;;;;;;;0.71;77.19;100239.05;1698621;82;21747;-59
2023/02/04 04:37:45;;;;;;;7.15;6.05;;;;;;;0.60;77.14;100239.48;1877796;76;22619;-59
2023/02/04 04:41:23;;;;;;;9.45;6.62;;;;;;;0.53;77.12;100239.09;1828820;76;22300;-57
2023/02/04 04:45:13;;;;;;;9.85;6.45;;;;;;;0.42;76.99;100240.87;1773628;79;21173;-58
2023/02/04 04:48:44;;;;;;;8.50;6.42;;;;;;;0.31;76.91;100245.72;1772714;79;21416;-57
2023/02/04 04:52:38;;;;;;;8.45;6.33;;;;;;;0.28;77.11;100254.03;1766323;80;21744;-55
2023/02/04 04:56:17;;;;;;;9.45;6.53;;;;;;;0.27;77.20;100249.60;1700416;79;21742;-59
2023/02/04 04:59:39;;;;;;;9.15;7.12;;;;;;;0.30;77.37;100258.82;1656029;86;21208;-58
2023/02/04 05:03:07;;;;;;;8.85;7.00;;;;;;;0.39;77.48;100253.22;1634324;85;21172;-59
2023/02/04 05:06:40;;;;;;;8.88;6.97;;;;;;;0.41;77.40;100264.27;1664796;85;21212;-59
2023/02/04 05:10:02;;;;;;;10.55;6.85;;;;;;;0.39;77.37;100271.58;1676017;85;21277;-59
2023/02/04 05:13:29;;;;;;;9.40;6.40;;;;;;;0.40;77.43;100279.19;1688080;84;21272;-59
2023/02/04 05:17:08;;;;;;;9.75;7.80;;;;;;;0.40;77.49;100275.98;1688437;85;21212;-59
2023/02/04 05:20:22;;;;;;;10.75;7.75;;;;;;;0.37;77.51;100286.98;1704313;81;21351;-59
2023/02/04 05:23:41;;;;;;;30.17;18.85;;;;;;;0.36;77.58;100291.14;1698571;84;21257;-58
2023/02/04 05:26:58;;;;;;;13.22;11.10;;;;;;;0.37;77.67;100303.13;1672390;85;21187;-57
2023/02/04 05:31:07;;;;;;;11.70;9.65;;;;;;;0.39;77.68;100301.20;1679728;83;21189;-57
2023/02/04 05:34:48;;;;;;;14.60;12.05;;;;;;;0.37;77.56;100301.79;1689881;83;21290;-57
2023/02/04 05:38:24;;;;;;;15.25;12.10;;;;;;;0.42;77.62;100301.44;1858516;76;22203;-57
2023/02/04 05:41:56;;;;;;;14.50;10.30;;;;;;;0.39;77.64;100313.31;1737036;82;21362;-57
2023/02/04 05:45:23;;;;;;;17.30;13.70;;;;;;;0.39;77.57;100313.31;1801809;78;21200;-57
2023/02/04 05:49:29;;;;;;;21.30;15.68;;;;;;;0.42;77.52;100314.42;1772222;79;21654;-57
2023/02/04 05:53:03;;;;;;;13.25;10.03;;;;;;;0.46;77.49;100309.17;1769363;80;21339;-58
2023/02/04 05:56:19;;;;;;;13.88;11.65;;;;;;;0.48;77.40;100325.21;1776304;79;21323;-58
2023/02/04 05:59:38;;;;;;;17.98;13.00;;;;;;;0.49;77.42;100325.09;1766625;79;21467;-59
2023/02/04 06:03:27;;;;;;;13.53;9.10;;;;;;;0.54;77.47;100328.82;1771482;80;21582;-58
2023/02/04 06:06:44;;;;;;;15.30;10.40;;;;;;;0.57;77.48;100333.47;1736723;81;21252;-58
2023/02/04 06:10:11;;;;;;;12.82;9.38;;;;;;;0.61;77.43;100336.32;1762958;81;21632;-57
2023/02/04 06:13:33;;;;;;;12.88;9.65;;;;;;;0.64;77.37;100336.56;1772302;80;21394;-58
2023/02/04 06:21:12;;;;;;;34.45;16.32;;;;;;;0.80;77.37;100348.78;1715831;79;21202;-56
2023/02/04 06:24:28;;;;;;;41.48;19.62;;;;;;;0.90;77.35;100358.38;1704134;84;21237;-59
2023/02/04 06:28:05;;;;;;;53.90;22.87;;;;;;;0.96;77.29;100358.78;1662545;85;21503;-56
2023/02/04 06:32:04;;;;;;;45.50;21.12;;;;;;;1.01;77.02;100367.39;1871836;75;22292;-57
2023/02/04 06:35:38;;;;;;;42.93;20.52;;;;;;;0.91;76.81;100371.73;1813224;77;21908;-58
2023/02/04 06:38:55;;;;;;;35.25;17.95;;;;;;;0.85;76.67;100376.72;1786348;77;21803;-58
2023/02/04 06:42:41;;;;;;;32.45;16.10;;;;;;;0.84;76.63;100380.41;1800244;77;21526;-57
2023/02/04 06:46:18;;;;;;;27.10;15.48;;;;;;;0.85;76.43;100389.72;1709321;79;21260;-56
2023/02/04 06:49:33;;;;;;;32.95;17.07;;;;;;;0.86;76.32;100391.42;1681245;80;21909;-56
2023/02/04 06:53:19;;;;;;;54.58;30.77;;;;;;;0.92;76.40;100386.08;1699473;80;21993;-56
2023/02/04 06:56:42;;;;;;;53.05;28.77;;;;;;;1.02;76.37;100388.44;1709567;81;21720;-57
2023/02/04 06:59:59;;;;;;;32.98;18.35;;;;;;;1.11;76.36;100389.11;1696158;81;21390;-56
2023/02/04 07:03:12;;;;;;;25.10;15.30;;;;;;;1.23;76.34;100394.42;1682133;81;21352;-56
2023/02/04 07:06:45;;;;;;;23.95;16.00;;;;;;;1.30;76.03;100393.47;1656525;82;21207;-57
2023/02/04 07:10:02;;;;;;;17.23;11.93;;;;;;;1.43;75.67;100392.41;1835969;76;22785;-57
2023/02/04 07:13:38;;;;;;;13.20;9.25;;;;;;;1.42;75.62;100406.87;1772174;79;21447;-57
2023/02/04 07:17:48;;;;;;;13.15;9.43;;;;;;;1.50;75.59;100406.28;1755410;81;21200;-57
2023/02/04 07:36:36;;;;;;;11.93;8.78;;;;;;;1.92;74.96;100426.38;1883756;76;22218;-57
2023/02/04 07:50:27;;;;;;;10.30;7.83;;;;;;;1.86;74.19;100416.91;1869457;75;22670;-59
2023/02/04 07:53:45;;;;;;;10.82;7.90;;;;;;;1.70;73.92;100415.54;1829939;77;21152;-56
2023/02/04 07:57:35;;;;;;;10.53;8.33;;;;;;;1.49;73.82;100417.55;1795569;78;21686;-56
2023/02/04 08:01:15;;;;;;;12.68;8.95;;;;;;;1.43;73.86;100413.98;1838221;77;21196;-56
2023/02/04 08:04:51;;;;;;;11.38;8.63;;;;;;;1.41;73.68;100417.27;1811387;77;22111;-58
2023/02/04 08:08:15;;;;;;;14.85;10.30;;;;;;;1.40;73.82;100412.87;1812941;78;21740;-58
2023/02/04 08:11:38;;;;;;;12.60;9.65;;;;;;;1.42;73.85;100414.09;1813406;77;21789;-57
2023/02/04 08:15:31;;;;;;;13.62;10.23;;;;;;;1.48;73.95;100419.02;1755710;79;21267;-57
2023/02/04 08:18:56;;;;;;;13.32;9.68;;;;;;;1.52;73.75;100418.66;1781425;80;21195;-57
2023/02/04 08:22:41;;;;;;;13.62;9.68;;;;;;;1.48;73.75;100421.23;1882670;76;22203;-58
2023/02/04 08:26:20;;;;;;;11.93;9.03;;;;;;;1.39;73.84;100421.95;1853642;76;21208;-59
2023/02/04 08:29:30;;;;;;;11.03;8.78;;;;;;;1.38;73.80;100424.73;1812602;77;21246;-58
2023/02/04 08:33:00;;;;;;;17.57;12.50;;;;;;;1.28;73.70;100423.73;1669516;86;21250;-57
2023/02/04 08:36:43;;;;;;;14.35;9.93;;;;;;;1.18;73.62;100427.61;1660047;83;21248;-57
2023/02/04 08:40:32;;;;;;;18.32;10.78;;;;;;;1.08;73.60;100431.95;1651130;86;21298;-56
2023/02/04 08:44:01;;;;;;;17.52;11.78;;;;;;;1.00;73.69;100430.83;1651415;86;21309;-56
2023/02/04 08:47:29;;;;;;;18.17;11.83;;;;;;;1.07;73.91;100432.95;1633948;86;21223;-57
2023/02/04 08:50:49;;;;;;;15.90;11.25;;;;;;;1.10;73.98;100434.06;1632203;87;21274;-57
2023/02/04 08:54:26;;;;;;;14.13;10.72;;;;;;;1.21;74.24;100442.20;1638771;86;21255;-58
2023/02/04 08:57:45;;;;;;;15.53;10.00;;;;;;;1.42;74.44;100439.23;1623235;86;21216;-58
2023/02/04 09:01:05;;;;;;;12.78;9.40;;;;;;;1.53;74.46;100439.75;1624142;86;21251;-58
2023/02/04 09:04:20;;;;;;;12.05;9.10;;;;;;;1.48;74.46;100433.37;1672591;84;21303;-57
2023/02/04 09:07:42;;;;;;;10.72;8.15;;;;;;;1.60;74.74;100428.88;1707640;82;21382;-59
2023/02/04 09:11:03;;;;;;;11.43;8.93;;;;;;;1.73;74.80;100430.97;1664521;84;21577;-58
2023/02/04 09:14:33;;;;;;;14.13;9.33;;;;;;;1.75;74.79;100430.37;1677202;83;21663;-57
2023/02/04 09:18:17;;;;;;;10.75;7.60;;;;;;;1.81;74.99;100425.00;1627196;86;21358;-58
2023/02/04 09:21:40;;;;;;;10.13;7.22;;;;;;;1.95;74.86;100424.27;1844784;76;23062;-58
2023/02/04 09:25:19;;;;;;;9.55;7.35;;;;;;;1.91;74.87;100424.63;1783666;79;21248;-56
2023/02/04 09:29:03;;;;;;;9.18;7.15;;;;;;;1.98;74.97;100424.53;1800914;78;21268;-57
2023/02/04 09:32:49;;;;;;;10.90;8.13;;;;;;;1.94;74.76;100429.31;1780331;79;21752;-56
2023/02/04 09:40:06;;;;;;;9.10;7.10;;;;;;;1.80;74.74;100425.48;1728477;81;21731;-57
2023/02/04 09:43:39;;;;;;;10.55;7.92;;;;;;;1.79;74.71;100422.91;1798516;79;21731;-59
2023/02/04 09:46:58;;;;;;;9.08;6.92;;;;;;;1.76;74.82;100421.80;1727487;79;21157;-58
2023/02/04 09:50:41;;;;;;;11.80;8.18;;;;;;;1.77;74.82;100423.03;1772821;79;21197;-58
2023/02/04 09:53:53;;;;;;;11.38;8.78;;;;;;;1.87;75.01;100415.08;1774683;79;21141;-58
2023/02/04 09:57:06;;;;;;;9.95;7.65;;;;;;;1.99;74.96;100421.72;1782239;79;21232;-59
2023/02/04 10:00:53;;;;;;;10.35;7.83;;;;;;;2.25;74.82;100429.94;1837394;76;22286;-56
2023/02/04 10:04:32;;;;;;;8.60;6.72;;;;;;;2.27;74.70;100426.64;1871629;76;22219;-57
2023/02/04 10:08:22;;;;;;;10.50;7.35;;;;;;;2.30;74.86;100440.41;1782056;79;21208;-56
2023/02/04 10:12:29;;;;;;;8.75;6.83;;;;;;;2.50;74.92;100431.07;1756726;79;21220;-57
2023/02/04 10:16:05;;;;;;;9.35;7.37;;;;;;;2.75;74.95;100435.33;1732256;81;21226;-57
2023/02/04 10:23:09;;;;;;;9.63;7.62;;;;;;;3.19;74.91;100437.08;1705145;82;21521;-58
2023/02/04 10:26:27;;;;;;;8.13;6.20;;;;;;;3.41;74.96;100435.12;1802856;79;21387;-59
2023/02/04 10:29:53;;;;;;;8.73;6.12;;;;;;;3.63;74.78;100435.02;1781737;79;21204;-57
2023/02/04 10:33:30;;;;;;;8.23;5.72;;;;;;;3.67;74.29;100435.14;1841896;76;22594;-58
2023/02/04 10:36:44;;;;;;;6.83;5.60;;;;;;;3.69;74.31;100434.53;1771563;80;21278;-57
2023/02/04 10:40:01;;;;;;;6.83;5.97;;;;;;;3.90;74.49;100434.53;1770846;80;21227;-58
2023/02/04 10:43:26;;;;;;;7.92;6.20;;;;;;;4.21;74.51;100434.44;1756396;80;21250;-58
2023/02/04 10:46:45;;;;;;;9.70;6.15;;;;;;;4.43;74.31;100439.69;1773255;80;21188;-56
2023/02/04 10:50:34;;;;;;;8.53;6.95;;;;;;;4.73;74.14;100441.99;1848387;76;29158;-56
2023/02/04 11:56:39;;;;;;;12.93;9.63;;;;;;;4.84;73.94;100439.17;1744445;80;21210;-56
2023/02/04 12:00:12;;;;;;;11.80;8.80;;;;;;;4.70;72.56;100468.89;1733705;82;21480;-57
2023/02/04 12:04:07;;;;;;;9.58;7.45;;;;;;;4.68;72.67;100467.33;1736349;82;21357;-56
2023/02/04 12:07:42;;;;;;;9.35;6.97;;;;;;;4.63;72.63;100472.65;1745737;81;21176;-59
2023/02/04 12:11:01;;;;;;;10.60;8.30;;;;;;;4.69;72.66;100479.88;1723066;82;21781;-55
2023/02/04 12:14:47;;;;;;;14.95;8.85;;;;;;;4.55;72.35;100485.18;1743415;80;21283;-56
2023/02/04 12:18:28;;;;;;;12.20;9.13;;;;;;;4.53;72.47;100486.64;1704261;83;21252;-56
2023/02/04 12:22:01;;;;;;;11.43;8.20;;;;;;;4.44;72.36;100493.37;1718703;82;21344;-56
2023/02/04 12:28:35;;;;;;;10.58;7.92;;;;;;;4.20;72.34;100486.88;1718684;82;21240;-57
2023/02/04 12:31:51;;;;;;;12.05;9.28;;;;;;;4.12;72.42;100500.75;1719156;83;21187;-57
2023/02/04 12:35:44;;;;;;;15.93;10.28;;;;;;;3.93;72.44;100498.73;1732819;81;21216;-56
2023/02/04 12:39:08;;;;;;;10.78;8.28;;;;;;;3.76;72.47;100503.38;1742813;81;21212;-55
2023/02/04 12:42:29;;;;;;;11.88;8.83;;;;;;;3.59;72.56;100515.27;1749021;81;21180;-55
2023/02/04 12:45:56;;;;;;;11.25;8.30;;;;;;;3.53;72.76;100519.36;1741743;81;21711;-56
2023/02/04 12:49:45;;;;;;;11.22;7.70;;;;;;;3.46;72.82;100518.61;1749200;79;21434;-59
2023/02/04 12:53:22;;;;;;;11.38;8.78;;;;;;;3.40;72.90;100513.23;1744725;79;21192;-57
2023/02/04 12:57:04;;;;;;;10.17;8.20;;;;;;;3.42;73.05;100519.39;1726175;80;21691;-56
2023/02/04 13:00:26;;;;;;;9.35;7.62;;;;;;;3.33;73.03;100515.23;1759509;80;21193;-58
2023/02/04 13:03:44;;;;;;;9.13;7.80;;;;;;;3.29;73.15;100529.50;1742601;81;21853;-58
2023/02/04 13:07:06;;;;;;;12.43;9.68;;;;;;;3.30;73.25;100531.20;1757778;80;21371;-59
2023/02/04 13:10:25;;;;;;;13.15;9.53;;;;;;;3.32;73.30;100534.66;1758890;80;21256;-59
2023/02/04 13:13:44;;;;;;;13.10;10.60;;;;;;;3.33;73.20;100529.59;1842533;76;27959;-59
2023/02/04 13:17:01;;;;;;;16.10;10.28;;;;;;;3.32;73.11;100530.59;1707603;83;21362;-57
2023/02/04 13:20:27;;;;;;;18.32;11.55;;;;;;;3.30;73.05;100532.56;1771493;80;21236;-57
2023/02/04 13:23:58;;;;;;;12.28;8.93;;;;;;;3.21;72.96;100532.45;1771618;80;21264;-56
2023/02/04 13:27:12;;;;;;;49.58;28.05;;;;;;;3.12;72.99;100548.96;1773708;80;21524;-59
2023/02/04 13:30:33;;;;;;;29.75;18.65;;;;;;;3.01;72.99;100553.03;1758336;81;21197;-59
2023/02/04 13:33:54;;;;;;;18.57;12.70;;;;;;;2.94;73.09;100554.49;1751892;80;21197;-58
2023/02/04 13:37:13;;;;;;;13.28;9.78;;;;;;;2.92;73.13;100550.56;1773247;79;21765;-58
2023/02/04 13:40:37;;;;;;;16.82;12.73;;;;;;;2.86;73.14;100559.66;1770323;80;21745;-59
2023/02/04 13:43:57;;;;;;;19.27;15.50;;;;;;;2.79;73.20;100561.14;1774084;79;21286;-59
2023/02/04 13:47:13;;;;;;;15.13;11.88;;;;;;;2.72;73.16;100568.87;1798250;79;21689;-60
2023/02/04 13:50:43;;;;;;;25.20;17.67;;;;;;;2.64;73.22;100563.70;1760956;81;21757;-59
2023/02/04 13:53:53;;;;;;;27.98;18.73;;;;;;;2.59;73.35;100566.77;1744849;81;21320;-60
2023/02/04 13:57:16;;;;;;;17.40;12.68;;;;;;;2.57;73.38;100566.53;1726283;82;21234;-60
2023/02/04 14:04:42;;;;;;;17.40;12.43;;;;;;;2.54;73.57;100572.15;1749485;81;21209;-58
2023/02/04 14:08:27;;;;;;;18.77;12.95;;;;;;;2.56;73.63;100568.36;1798504;78;21904;-60
2023/02/04 14:12:07;;;;;;;18.85;13.83;;;;;;;2.59;73.63;100573.52;1851633;76;22216;-56
2023/02/04 14:15:39;;;;;;;20.08;14.28;;;;;;;2.51;73.56;100576.45;1778034;77;21545;-58
2023/02/04 14:19:06;;;;;;;19.70;13.03;;;;;;;2.42;73.47;100579.87;1756799;77;21207;-57
2023/02/04 14:22:24;;;;;;;21.45;17.12;;;;;;;2.35;73.43;100579.97;1791950;77;21220;-60
2023/02/04 14:25:40;;;;;;;26.20;19.10;;;;;;;2.27;73.42;100585.97;1762123;78;21611;-60
2023/02/04 14:28:59;;;;;;;25.97;17.92;;;;;;;2.18;73.35;100581.29;1774566;78;21235;-59
2023/02/04 14:32:14;;;;;;;19.77;13.68;;;;;;;2.10;73.47;100590.47;1798905;79;21291;-59
2023/02/04 14:35:36;;;;;;;18.30;13.85;;;;;;;2.04;73.47;100586.89;1787734;77;21213;-58
2023/02/04 14:38:52;;;;;;;19.87;13.70;;;;;;;2.03;73.56;100593.25;1778989;76;21205;-59
2023/02/04 14:42:06;;;;;;;20.30;13.10;;;;;;;2.03;73.63;100593.25;1775116;76;21797;-60
2023/02/04 14:45:19;;;;;;;22.55;13.70;;;;;;;2.02;73.67;100599.64;1748032;77;21713;-58
2023/02/04 14:48:40;;;;;;;20.15;13.43;;;;;;;2.03;73.73;100597.81;1761122;77;21241;-59
2023/02/04 14:52:05;;;;;;;22.00;14.63;;;;;;;2.02;73.71;100606.86;1679888;80;21248;-59
2023/02/04 14:55:31;;;;;;;31.30;18.55;;;;;;;1.95;73.58;100604.27;1735359;78;21392;-60
2023/02/04 14:58:41;;;;;;;31.12;20.48;;;;;;;1.89;73.62;100605.59;1702205;84;21277;-59
2023/02/04 15:02:01;;;;;;;35.63;22.37;;;;;;;1.90;73.69;100612.72;1729245;77;21656;-58
2023/02/04 15:05:14;;;;;;;25.57;17.10;;;;;;;1.92;73.69;100609.91;1742320;78;21267;-59
2023/02/04 15:08:32;;;;;;;36.50;21.37;;;;;;;1.88;73.63;100620.55;1735327;77;21252;-60
2023/02/04 15:12:10;;;;;;;24.30;15.75;;;;;;;1.88;73.68;100624.59;1748489;79;21248;-59
2023/02/04 15:15:33;;;;;;;28.87;17.73;;;;;;;1.88;73.74;100621.89;1762068;80;21291;-59
2023/02/04 15:18:53;;;;;;;23.12;14.93;;;;;;;1.89;73.70;100631.73;1774056;76;21209;-60
2023/02/04 15:22:11;;;;;;;21.95;15.28;;;;;;;1.88;73.72;100630.87;1776338;79;21257;-59
2023/02/04 15:25:44;;;;;;;18.70;14.15;;;;;;;1.90;73.77;100634.80;1785360;77;21241;-57
2023/02/04 15:29:08;;;;;;;19.37;14.73;;;;;;;1.93;73.81;100636.78;1782526;78;21471;-57
2023/02/04 15:32:28;;;;;;;21.05;15.10;;;;;;;1.97;73.80;100638.73;1770703;78;21268;-56
2023/02/04 15:35:42;;;;;;;22.17;15.32;;;;;;;1.96;73.71;100643.78;1775004;78;21225;-56
2023/02/04 15:39:07;;;;;;;20.48;16.37;;;;;;;1.97;73.71;100647.70;1783875;77;21220;-56
2023/02/04 15:42:25;;;;;;;31.33;20.12;;;;;;;1.94;73.58;100648.42;1791645;78;21347;-58
2023/02/04 15:45:43;;;;;;;22.25;16.45;;;;;;;1.91;73.52;100652.70;1769583;78;21843;-57
2023/02/04 15:49:07;;;;;;;18.67;13.48;;;;;;;1.91;73.53;100662.15;1797137;78;21742;-57
2023/02/04 15:52:57;;;;;;;16.87;11.50;;;;;;;1.95;73.59;100660.96;1725187;79;21770;-56
2023/02/04 15:56:44;;;;;;;16.23;11.75;;;;;;;1.95;73.57;100669.06;1775711;77;21347;-57
2023/02/04 16:00:05;;;;;;;18.40;13.18;;;;;;;1.97;73.57;100664.38;1738616;79;21980;-59
2023/02/04 16:03:16;;;;;;;16.05;11.50;;;;;;;1.93;73.46;100667.83;1779475;80;22054;-59
2023/02/04 16:06:34;;;;;;;20.92;14.33;;;;;;;1.92;73.38;100671.98;1761489;79;21351;-61
2023/02/04 16:10:08;;;;;;;48.08;30.60;;;;;;;1.88;73.31;100677.22;1767619;79;21922;-60
2023/02/04 16:13:34;;;;;;;38.75;25.77;;;;;;;1.90;73.25;100679.33;1867018;76;22199;-59
2023/02/04 16:16:56;;;;;;;21.62;17.17;;;;;;;1.84;73.21;100690.59;1751749;81;21453;-60
2023/02/04 16:20:24;;;;;;;18.20;13.48;;;;;;;1.86;73.21;100687.27;1840211;76;22270;-57
2023/02/04 16:23:43;;;;;;;18.95;13.03;;;;;;;1.79;73.23;100684.66;1773929;80;21276;-59
2023/02/04 16:27:21;;;;;;;15.88;12.93;;;;;;;1.84;73.24;100684.68;1852962;76;22221;-59
2023/02/04 16:30:42;;;;;;;16.93;12.30;;;;;;;1.79;73.25;100681.97;1809056;78;21722;-59
2023/02/04 16:34:10;;;;;;;18.80;13.28;;;;;;;1.80;73.28;100693.12;1803845;79;21172;-57
2023/02/04 16:37:51;;;;;;;21.60;14.00;;;;;;;1.80;73.25;100693.99;1743910;82;21370;-58
2023/02/04 16:41:14;;;;;;;17.05;11.70;;;;;;;1.81;73.33;100694.36;1773561;79;21516;-57
2023/02/04 16:44:48;;;;;;;16.52;12.30;;;;;;;1.84;73.27;100698.69;1739513;79;21192;-56
2023/02/04 16:48:32;;;;;;;25.00;12.93;;;;;;;1.81;73.26;100707.01;1750110;81;21198;-59
2023/02/04 20:26:32;;;;;;;18.85;11.38;;;;;;;1.81;73.28;100707.84;1649397;85;21753;-57
2023/02/04 20:29:55;;;;;;;17.37;12.13;;;;;;;1.42;73.72;100791.67;1646481;86;21489;-59
2023/02/04 20:33:09;;;;;;;16.70;11.88;;;;;;;1.41;73.70;100801.58;1627377;88;21248;-61
2023/02/04 20:36:46;;;;;;;18.07;12.35;;;;;;;1.44;73.70;100799.17;1616918;88;21371;-59
2023/02/04 20:43:36;;;;;;;17.48;12.43;;;;;;;1.58;73.72;100791.44;1858595;76;22207;-57
2023/02/04 20:46:58;;;;;;;19.23;12.37;;;;;;;1.50;73.61;100799.61;1737609;82;21369;-59
2023/02/04 20:50:36;;;;;;;17.12;12.10;;;;;;;1.49;73.60;100797.02;1739495;81;21194;-56
2023/02/04 20:54:16;;;;;;;19.48;12.90;;;;;;;1.44;73.49;100795.97;1737331;81;21128;-57
2023/02/04 20:57:31;;;;;;;19.57;13.20;;;;;;;1.45;73.56;100801.76;1757995;81;21246;-61
2023/02/04 21:00:53;;;;;;;19.00;13.25;;;;;;;1.48;73.57;100804.23;1717325;82;21279;-57
2023/02/04 21:04:52;;;;;;;16.52;12.55;;;;;;;1.49;73.63;100803.77;1721467;82;21723;-56
2023/02/04 21:08:53;;;;;;;19.20;12.93;;;;;;;1.48;73.59;100809.63;1736306;82;21173;-59
2023/02/04 21:12:18;;;;;;;19.20;13.15;;;;;;;1.41;73.50;100815.06;1798029;79;21671;-59
2023/02/04 21:15:46;;;;;;;23.65;15.13;;;;;;;1.38;73.54;100811.23;1803252;79;21229;-59
2023/02/04 21:19:17;;;;;;;20.23;13.85;;;;;;;1.39;73.43;100817.03;1875746;76;22185;-60
2023/02/04 21:22:45;;;;;;;23.40;16.00;;;;;;;1.39;73.48;100824.25;1861812;76;22187;-56
2023/02/04 21:26:22;;;;;;;22.30;14.43;;;;;;;1.33;73.49;100827.38;1737240;82;21378;-57
2023/02/04 21:29:48;;;;;;;18.10;13.48;;;;;;;1.36;73.65;100823.12;1706324;83;21232;-57
2023/02/04 21:33:11;;;;;;;21.57;14.43;;;;;;;1.50;73.71;100817.61;1858942;76;22192;-58
2023/02/04 21:36:34;;;;;;;19.15;14.03;;;;;;;1.43;73.70;100826.63;1707938;83;21188;-58
2023/02/04 21:39:59;;;;;;;17.45;11.85;;;;;;;1.39;73.50;100833.69;1845687;76;22281;-57
2023/02/04 21:43:52;;;;;;;;;;;;;;;;;;;;;
2023/02/04 21:47:06;;;;;;;21.73;14.20;;;;;;;1.36;73.61;100840.65;1858961;76;22203;-59
2023/02/04 21:50:29;;;;;;;19.70;12.80;;;;;;;1.33;73.66;100844.41;1787471;79;21323;-57
2023/02/04 21:54:03;;;;;;;23.62;14.00;;;;;;;1.35;73.76;100838.42;1765801;80;21180;-57
2023/02/04 21:57:43;;;;;;;18.85;13.53;;;;;;;1.46;73.78;100842.58;1798892;75;22647;-57
2023/02/04 22:01:18;;;;;;;18.10;12.78;;;;;;;1.40;73.70;100848.41;1769138;78;21174;-56
2023/02/04 22:05:02;;;;;;;19.05;13.22;;;;;;;1.41;73.66;100845.24;1777313;77;21376;-57
2023/02/04 22:08:39;;;;;;;19.42;13.32;;;;;;;1.45;73.73;100847.61;1781945;78;21174;-59
2023/02/04 22:12:09;;;;;;;18.10;13.62;;;;;;;1.46;73.68;100854.72;1752067;78;21325;-59
2023/02/04 22:15:23;;;;;;;19.15;14.07;;;;;;;1.46;73.62;100846.63;1788101;77;21344;-60
2023/02/04 22:18:41;;;;;;;17.95;12.82;;;;;;;1.50;73.69;100850.86;1766559;77;21213;-61
2023/02/04 22:21:59;;;;;;;17.98;12.82;;;;;;;1.53;73.68;100852.47;1719078;79;21224;-59
2023/02/04 22:25:19;;;;;;;18.12;12.18;;;;;;;1.52;73.60;100851.59;1760112;77;21268;-60
2023/02/04 22:28:39;;;;;;;18.60;13.55;;;;;;;1.50;73.60;100848.16;1755464;77;21269;-58
2023/02/04 22:32:23;;;;;;;22.25;14.25;;;;;;;1.50;73.66;100857.60;1739726;79;21234;-58
2023/02/04 22:35:58;;;;;;;20.50;13.53;;;;;;;1.49;73.74;100850.45;1770781;78;21776;-60
2023/02/04 22:39:19;;;;;;;19.50;13.68;;;;;;;1.51;73.77;100859.31;1780376;77;21198;-59
2023/02/04 22:42:43;;;;;;;20.95;14.47;;;;;;;1.52;73.78;100862.38;1789221;78;21195;-60
2023/02/04 22:46:19;;;;;;;22.77;15.05;;;;;;;1.52;73.67;100861.03;1775102;78;21248;-59
2023/02/04 22:49:35;;;;;;;24.40;13.80;;;;;;;1.51;73.54;100860.66;1710957;82;21873;-59
2023/02/04 22:53:05;;;;;;;22.98;14.90;;;;;;;1.47;73.52;100865.88;1707034;81;21866;-57
2023/02/04 22:56:35;;;;;;;20.97;14.13;;;;;;;1.45;73.51;100861.57;1782393;79;21900;-57
2023/02/04 23:00:06;;;;;;;22.70;15.17;;;;;;;1.44;73.59;100874.70;1789938;80;21218;-56
2023/02/04 23:03:28;;;;;;;23.55;15.48;;;;;;;1.44;73.66;100866.09;1786594;80;21319;-57
2023/02/04 23:06:39;;;;;;;24.00;15.72;;;;;;;1.37;73.61;100863.46;1789488;80;21205;-59
2023/02/04 23:10:12;;;;;;;25.27;15.35;;;;;;;1.35;73.65;100872.61;1719056;83;21916;-59
2023/02/04 23:13:53;;;;;;;25.68;16.77;;;;;;;1.38;73.78;100873.27;1794061;80;21182;-59
2023/02/04 23:17:27;;;;;;;26.95;17.27;;;;;;;1.39;73.79;100875.02;1789206;79;21591;-58
2023/02/04 23:20:53;;;;;;;25.32;16.32;;;;;;;1.34;73.71;100881.20;1795782;79;21197;-59
2023/02/04 23:24:14;;;;;;;27.35;16.87;;;;;;;1.28;73.68;100879.41;1792998;79;21307;-58
2023/02/04 23:27:32;;;;;;;26.20;17.45;;;;;;;1.24;73.66;100881.45;1789020;80;21308;-59
2023/02/04 23:30:49;;;;;;;31.07;18.73;;;;;;;1.16;73.72;100884.27;1797328;79;21236;-58
2023/02/04 23:34:11;;;;;;;29.30;18.07;;;;;;;1.11;73.71;100883.75;1753973;80;21317;-59
2023/02/04 23:37:33;;;;;;;27.17;17.95;;;;;;;1.09;73.85;100882.51;1797131;79;21221;-58
2023/02/04 23:40:58;;;;;;;29.27;18.07;;;;;;;1.10;73.90;100889.61;1789141;80;21339;-59
2023/02/04 23:44:33;;;;;;;27.85;17.62;;;;;;;1.01;73.79;100890.72;1786135;79;21190;-60
2023/02/04 23:48:05;;;;;;;28.02;17.32;;;;;;;0.91;73.76;100894.52;1775863;80;21718;-57
2023/02/04 23:51:23;;;;;;;28.75;17.90;;;;;;;0.86;73.87;100896.64;1736649;79;21229;-57
2023/02/04 23:54:55;;;;;;;25.00;16.87;;;;;;;0.83;73.84;100895.50;1772410;80;21213;-58
2023/02/04 23:58:36;;;;;;;30.43;17.67;;;;;;;0.84;73.96;100901.77;1761199;80;21220;-56
